Time;durP1;ratioP1;P1;durP2;ratioP2;P2;SDS_P1;SDS_P2;PMS_P1;PMS_P2;Temp;Humidity;BMP_temperature;BMP_pressure;BME280_temperature;BME280_humidity;BME280_pressure;Samples;Min_cycle;Max_cycle;Signal;HPM_P1;HPM_P2
2020/12/29 00:01:34;;;;;;;2.80;2.60;;;3.80;99.90;;;;;;5070209;28;20640;-93
2020/12/29 00:04:02;;;;;;;2.50;2.23;;;3.80;99.90;;;;;;5059741;28;20649;-94
2020/12/29 00:06:28;;;;;;;2.87;1.87;;;4.00;99.90;;;;;;5065762;28;20650;-94
2020/12/29 00:08:55;;;;;;;1.73;1.63;;;4.00;99.90;;;;;;5060071;28;20654;-94
2020/12/29 00:11:22;;;;;;;1.30;1.20;;;4.50;99.90;;;;;;5062772;28;20656;-94
2020/12/29 00:13:48;;;;;;;1.57;1.47;;;4.60;99.90;;;;;;5065412;28;20751;-93
2020/12/29 00:16:15;;;;;;;1.50;1.40;;;4.30;99.90;;;;;;5069175;28;20640;-94
2020/12/29 00:18:51;;;;;;;1.20;1.20;;;4.30;99.90;;;;;;5066905;28;20648;-93
2020/12/29 00:21:19;;;;;;;1.90;1.53;;;4.70;99.90;;;;;;5064617;28;21281;-94
2020/12/29 00:23:48;;;;;;;1.20;1.20;;;4.30;99.90;;;;;;5069246;28;20633;-95
2020/12/29 00:26:14;;;;;;;1.33;1.03;;;4.20;99.90;;;;;;5072211;28;20748;-94
2020/12/29 00:28:41;;;;;;;1.30;1.20;;;4.50;99.90;;;;;;5071218;28;20652;-96
2020/12/29 00:31:08;;;;;;;1.57;1.47;;;4.20;99.90;;;;;;5065509;28;20687;-94
2020/12/29 00:33:40;;;;;;;1.23;1.13;;;4.20;99.90;;;;;;5064593;28;20679;-94
2020/12/29 00:36:07;;;;;;;1.13;1.03;;;4.20;99.90;;;;;;5073432;28;21266;-96
2020/12/29 00:38:35;;;;;;;1.50;1.30;;;4.20;99.90;;;;;;5073618;28;20636;-94
2020/12/29 00:41:05;;;;;;;0.80;0.77;;;4.10;99.90;;;;;;5073503;28;20698;-94
2020/12/29 00:43:31;;;;;;;0.87;0.80;;;4.10;99.90;;;;;;5071117;28;20649;-94
2020/12/29 00:45:58;;;;;;;0.73;0.60;;;4.10;99.90;;;;;;5070308;28;20959;-96
2020/12/29 00:48:24;;;;;;;0.97;0.90;;;4.30;99.90;;;;;;5068969;28;20992;-94
2020/12/29 00:50:50;;;;;;;1.43;0.90;;;4.60;99.90;;;;;;5067866;28;20669;-94
2020/12/29 00:53:17;;;;;;;0.90;0.80;;;4.20;99.90;;;;;;5064599;28;20660;-94
2020/12/29 00:55:44;;;;;;;0.90;0.90;;;4.10;99.90;;;;;;5065858;28;20669;-93
2020/12/29 00:58:12;;;;;;;1.47;0.93;;;4.50;99.90;;;;;;5075553;28;21213;-94
2020/12/29 01:00:38;;;;;;;0.83;0.77;;;4.20;99.90;;;;;;5072938;28;20672;-94
2020/12/29 01:03:06;;;;;;;1.10;1.00;;;4.20;99.90;;;;;;5094940;28;20658;-96
2020/12/29 01:05:34;;;;;;;0.90;0.90;;;4.10;99.90;;;;;;5087835;28;20641;-96
2020/12/29 01:08:01;;;;;;;1.50;1.30;;;4.30;99.90;;;;;;5089881;28;20628;-96
2020/12/29 01:10:33;;;;;;;1.30;1.03;;;4.20;99.90;;;;;;5097065;28;20713;-95
2020/12/29 01:13:01;;;;;;;2.10;1.23;;;4.90;99.90;;;;;;5086977;28;20691;-95
2020/12/29 01:15:28;;;;;;;1.13;1.03;;;4.30;99.90;;;;;;5091280;28;20630;-93
2020/12/29 01:17:54;;;;;;;0.63;0.60;;;4.40;99.90;;;;;;5084354;28;20694;-93
2020/12/29 01:20:25;;;;;;;1.27;0.90;;;4.50;99.90;;;;;;5086160;28;20699;-93
2020/12/29 01:22:52;;;;;;;1.57;0.60;;;4.60;99.90;;;;;;5083417;28;20619;-92
2020/12/29 01:25:18;;;;;;;1.17;1.03;;;4.60;99.90;;;;;;5072294;28;20638;-95
2020/12/29 01:27:45;;;;;;;0.60;0.40;;;4.60;99.90;;;;;;5069349;28;20633;-94
2020/12/29 01:30:13;;;;;;;0.53;0.50;;;4.60;99.90;;;;;;5068352;28;20657;-94
2020/12/29 01:32:40;;;;;;;0.97;0.80;;;4.60;99.90;;;;;;5064086;28;20673;-92
2020/12/29 01:35:07;;;;;;;1.03;0.80;;;4.70;99.90;;;;;;5046713;28;21149;-92
2020/12/29 01:37:33;;;;;;;0.53;0.30;;;4.60;99.90;;;;;;5069074;28;20633;-93
2020/12/29 01:40:00;;;;;;;0.80;0.50;;;4.60;99.90;;;;;;5062216;28;20676;-92
2020/12/29 01:42:31;;;;;;;0.67;0.40;;;4.60;99.90;;;;;;5070260;28;20678;-92
2020/12/29 01:44:58;;;;;;;0.90;0.40;;;4.70;99.90;;;;;;5063829;28;20640;-93
2020/12/29 01:47:27;;;;;;;0.50;0.40;;;4.70;99.90;;;;;;5065936;28;20644;-93
2020/12/29 01:49:53;;;;;;;1.03;0.43;;;4.70;99.90;;;;;;5069772;28;20992;-93
2020/12/29 01:52:20;;;;;;;0.50;0.40;;;4.80;99.90;;;;;;5073326;28;20630;-94
2020/12/29 01:54:46;;;;;;;0.70;0.57;;;4.80;99.90;;;;;;5081555;28;20626;-95
2020/12/29 01:57:13;;;;;;;1.23;0.50;;;4.80;99.90;;;;;;5082330;28;20660;-94
2020/12/29 01:59:39;;;;;;;2.10;0.70;;;4.60;99.90;;;;;;5065676;28;20684;-94
2020/12/29 02:02:08;;;;;;;0.40;0.40;;;4.60;99.90;;;;;;5069932;28;20698;-95
2020/12/29 02:04:36;;;;;;;0.67;0.60;;;4.70;99.90;;;;;;5063777;28;20714;-93
2020/12/29 02:07:03;;;;;;;0.90;0.60;;;4.80;99.90;;;;;;5074572;28;21160;-95
2020/12/29 02:09:33;;;;;;;0.60;0.43;;;4.80;99.90;;;;;;5071286;28;20695;-94
2020/12/29 02:11:59;;;;;;;1.10;0.80;;;4.80;99.90;;;;;;5066222;28;21251;-94
2020/12/29 02:14:26;;;;;;;0.70;0.43;;;4.90;99.90;;;;;;5070604;28;21208;-93
2020/12/29 02:16:52;;;;;;;1.90;0.47;;;4.90;99.90;;;;;;5073920;28;20633;-94
2020/12/29 02:19:18;;;;;;;0.60;0.50;;;4.90;99.90;;;;;;5063848;28;20694;-93
2020/12/29 02:21:51;;;;;;;0.60;0.50;;;4.90;99.90;;;;;;5066372;28;20734;-93
2020/12/29 02:24:18;;;;;;;0.50;0.40;;;4.80;99.90;;;;;;5067754;28;20743;-93
2020/12/29 02:26:45;;;;;;;0.50;0.40;;;5.00;99.90;;;;;;5064740;28;20637;-93
2020/12/29 02:29:11;;;;;;;0.60;0.50;;;4.90;99.90;;;;;;5064028;28;20637;-93
2020/12/29 02:31:37;;;;;;;0.53;0.50;;;5.00;99.90;;;;;;5067470;28;20641;-93
2020/12/29 02:34:04;;;;;;;0.60;0.40;;;5.10;99.90;;;;;;5060697;28;20670;-94
2020/12/29 02:36:30;;;;;;;0.50;0.40;;;5.10;99.90;;;;;;5069111;28;20649;-93
2020/12/29 02:38:57;;;;;;;1.70;0.60;;;5.20;99.90;;;;;;5072659;28;20634;-93
2020/12/29 02:41:24;;;;;;;1.00;0.77;;;5.20;99.90;;;;;;5071869;28;20735;-92
2020/12/29 02:43:51;;;;;;;0.40;0.30;;;5.30;99.90;;;;;;5067722;28;21190;-92
2020/12/29 02:46:18;;;;;;;0.40;0.30;;;5.40;99.90;;;;;;5076836;28;20692;-93
2020/12/29 02:48:44;;;;;;;0.80;0.50;;;5.40;99.90;;;;;;5071837;28;20651;-93
2020/12/29 02:51:14;;;;;;;1.40;0.60;;;5.40;99.90;;;;;;5069918;28;20681;-94
2020/12/29 02:53:41;;;;;;;1.53;0.40;;;5.40;99.90;;;;;;5075253;28;20677;-95
2020/12/29 02:56:10;;;;;;;0.60;0.30;;;5.40;99.90;;;;;;5073425;28;20640;-95
2020/12/29 02:58:37;;;;;;;0.50;0.37;;;5.40;99.90;;;;;;5072545;28;20660;-94
2020/12/29 03:01:09;;;;;;;1.43;0.50;;;5.50;99.90;;;;;;5070341;28;20661;-96
2020/12/29 03:03:41;;;;;;;1.33;0.60;;;5.50;99.90;;;;;;5072300;28;20640;-95
2020/12/29 03:06:08;;;;;;;1.13;0.50;;;5.60;99.90;;;;;;5070679;28;20651;-93
2020/12/29 03:08:34;;;;;;;0.47;0.33;;;5.50;99.90;;;;;;5076165;28;20803;-95
2020/12/29 03:11:01;;;;;;;0.73;0.40;;;5.50;99.90;;;;;;5070972;28;20684;-95
2020/12/29 03:13:29;;;;;;;1.73;0.40;;;5.50;99.90;;;;;;5065219;28;20684;-96
2020/12/29 03:15:57;;;;;;;0.90;0.40;;;5.40;99.90;;;;;;5075491;28;20653;-96
2020/12/29 03:18:24;;;;;;;0.40;0.30;;;5.40;99.90;;;;;;5073963;28;20643;-96
2020/12/29 03:20:51;;;;;;;1.53;0.40;;;5.30;99.90;;;;;;5077881;28;20729;-94
2020/12/29 03:23:17;;;;;;;0.50;0.30;;;5.20;99.90;;;;;;5066206;28;20640;-92
2020/12/29 03:25:44;;;;;;;0.50;0.33;;;5.10;99.90;;;;;;5071776;27;20650;-92
2020/12/29 03:28:11;;;;;;;0.37;0.20;;;5.10;99.90;;;;;;5071387;28;21090;-92
2020/12/29 03:30:40;;;;;;;0.60;0.40;;;5.00;99.90;;;;;;5064109;28;20679;-93
2020/12/29 03:33:07;;;;;;;1.30;0.40;;;5.00;99.90;;;;;;5070261;28;20675;-92
2020/12/29 03:35:33;;;;;;;0.50;0.30;;;4.90;99.90;;;;;;5067444;28;20653;-93
2020/12/29 03:37:59;;;;;;;0.40;0.30;;;5.20;99.90;;;;;;5068404;28;21223;-94
2020/12/29 03:40:26;;;;;;;0.40;0.30;;;4.80;99.90;;;;;;5071200;28;21030;-93
2020/12/29 03:42:56;;;;;;;0.40;0.30;;;4.80;99.90;;;;;;5070970;28;20651;-93
2020/12/29 03:45:22;;;;;;;0.50;0.30;;;4.80;99.90;;;;;;5067518;28;20636;-93
2020/12/29 03:47:49;;;;;;;0.73;0.50;;;4.80;99.90;;;;;;5061721;28;21182;-93
2020/12/29 03:50:17;;;;;;;1.23;0.30;;;4.80;99.90;;;;;;5069693;28;20657;-93
2020/12/29 03:52:46;;;;;;;0.50;0.40;;;4.80;99.90;;;;;;5070885;28;20628;-93
2020/12/29 03:55:21;;;;;;;0.40;0.30;;;4.80;99.90;;;;;;5070814;28;20648;-93
2020/12/29 03:57:47;;;;;;;0.93;0.43;;;4.80;99.90;;;;;;5067679;28;20691;-94
2020/12/29 04:00:14;;;;;;;1.47;0.50;;;4.80;99.90;;;;;;5073049;28;21041;-93
2020/12/29 04:02:42;;;;;;;0.40;0.40;;;4.70;99.90;;;;;;5073277;28;20652;-92
2020/12/29 04:05:11;;;;;;;0.70;0.40;;;4.70;99.90;;;;;;5064848;28;20625;-94
2020/12/29 04:07:38;;;;;;;0.90;0.60;;;4.70;99.90;;;;;;5069912;28;20689;-93
2020/12/29 04:10:05;;;;;;;2.73;0.57;;;4.70;99.90;;;;;;5060407;28;21007;-92
2020/12/29 04:12:31;;;;;;;0.63;0.60;;;4.70;99.90;;;;;;5070133;28;21080;-94
2020/12/29 04:14:58;;;;;;;1.00;0.37;;;4.70;99.90;;;;;;5051369;28;20743;-95
2020/12/29 04:17:26;;;;;;;1.57;0.43;;;4.70;99.90;;;;;;5063016;28;20753;-94
2020/12/29 04:19:53;;;;;;;0.60;0.40;;;4.70;99.90;;;;;;5066179;28;20672;-94
2020/12/29 04:22:22;;;;;;;0.80;0.40;;;4.70;99.90;;;;;;5061817;28;20663;-93
2020/12/29 04:24:51;;;;;;;0.70;0.50;;;4.80;99.90;;;;;;5068984;28;20689;-92
2020/12/29 04:27:17;;;;;;;1.03;0.40;;;4.80;99.90;;;;;;5066186;28;20699;-92
2020/12/29 04:29:44;;;;;;;2.50;0.60;;;4.80;99.90;;;;;;5063685;28;20658;-93
2020/12/29 04:32:12;;;;;;;1.20;0.60;;;4.90;99.90;;;;;;5066865;28;20648;-92
2020/12/29 04:34:39;;;;;;;0.73;0.40;;;4.90;99.90;;;;;;5066329;28;20667;-92
2020/12/29 04:37:05;;;;;;;1.33;0.60;;;4.90;99.90;;;;;;5059558;28;20658;-93
2020/12/29 04:39:32;;;;;;;1.50;0.57;;;4.90;99.90;;;;;;5049201;28;20702;-93
2020/12/29 04:42:03;;;;;;;0.67;0.43;;;4.80;99.90;;;;;;5063928;28;20653;-92
2020/12/29 04:44:30;;;;;;;2.00;0.80;;;4.80;99.90;;;;;;5065693;28;20632;-94
2020/12/29 04:46:57;;;;;;;0.70;0.50;;;4.80;99.90;;;;;;5065456;28;20633;-92
2020/12/29 04:49:23;;;;;;;0.50;0.50;;;4.80;99.90;;;;;;5067364;28;20643;-92
2020/12/29 04:51:51;;;;;;;1.40;0.40;;;4.90;99.90;;;;;;5065820;28;20834;-92
2020/12/29 04:54:26;;;;;;;1.17;0.40;;;4.90;99.90;;;;;;5070182;28;20711;-92
2020/12/29 04:56:55;;;;;;;2.13;1.00;;;4.90;99.90;;;;;;5057410;28;20634;-92
2020/12/29 04:59:27;;;;;;;1.90;0.73;;;4.90;99.90;;;;;;5066492;28;20659;-90
2020/12/29 05:01:55;;;;;;;1.00;0.60;;;4.90;99.90;;;;;;5067361;28;20692;-92
2020/12/29 05:04:22;;;;;;;1.80;0.70;;;4.90;99.90;;;;;;5069238;28;20643;-91
2020/12/29 05:06:48;;;;;;;1.43;0.50;;;4.90;99.90;;;;;;5063830;28;20634;-92
2020/12/29 05:09:16;;;;;;;0.60;0.40;;;4.90;99.90;;;;;;5066764;28;20635;-91
2020/12/29 05:11:45;;;;;;;0.40;0.40;;;4.90;99.90;;;;;;5069862;28;20643;-91
2020/12/29 05:14:12;;;;;;;1.03;0.53;;;4.80;99.90;;;;;;5063726;28;20734;-92
2020/12/29 05:16:40;;;;;;;0.90;0.50;;;4.80;99.90;;;;;;5073811;28;20627;-91
2020/12/29 05:19:09;;;;;;;2.13;1.30;;;4.70;99.90;;;;;;5084372;28;20712;-92
2020/12/29 05:21:39;;;;;;;0.87;0.53;;;4.70;99.90;;;;;;5075209;28;20640;-92
2020/12/29 05:24:11;;;;;;;1.80;0.70;;;4.70;99.90;;;;;;5071156;28;20643;-92
2020/12/29 05:26:38;;;;;;;1.23;0.87;;;4.70;99.90;;;;;;5071602;28;20647;-91
2020/12/29 05:29:06;;;;;;;3.57;0.60;;;4.70;99.90;;;;;;5066374;28;20630;-93
2020/12/29 05:31:33;;;;;;;0.70;0.50;;;4.70;99.90;;;;;;5068570;28;20669;-92
2020/12/29 05:34:03;;;;;;;1.27;0.60;;;4.70;99.90;;;;;;5066168;28;20711;-91
2020/12/29 05:36:35;;;;;;;1.37;0.70;;;4.70;99.90;;;;;;5074449;28;21074;-91
2020/12/29 05:39:07;;;;;;;0.60;0.40;;;4.70;99.90;;;;;;5068005;28;20636;-91
2020/12/29 05:41:41;;;;;;;0.60;0.50;;;4.70;99.90;;;;;;5073385;28;20717;-90
2020/12/29 05:44:12;;;;;;;0.70;0.40;;;4.70;99.90;;;;;;5047320;28;20718;-92
2020/12/29 05:46:38;;;;;;;0.40;0.40;;;4.60;99.90;;;;;;5067890;28;20639;-92
2020/12/29 05:49:06;;;;;;;0.60;0.40;;;4.50;99.90;;;;;;5064590;28;21546;-92
2020/12/29 05:51:34;;;;;;;1.80;1.03;;;4.50;99.90;;;;;;5066073;28;20678;-92
2020/12/29 05:54:03;;;;;;;1.47;0.83;;;4.40;99.90;;;;;;5066463;28;20745;-92
2020/12/29 05:56:30;;;;;;;0.57;0.50;;;4.40;99.90;;;;;;5065475;28;20632;-93
2020/12/29 05:58:58;;;;;;;1.90;0.90;;;4.40;99.90;;;;;;5076607;28;20672;-93
2020/12/29 06:01:36;;;;;;;1.60;1.50;;;4.30;99.90;;;;;;5060271;28;20663;-91
2020/12/29 06:04:03;;;;;;;0.70;0.57;;;4.30;99.90;;;;;;5066957;28;20645;-94
2020/12/29 06:06:37;;;;;;;1.50;0.97;;;4.20;99.90;;;;;;5065792;28;20684;-94
2020/12/29 06:09:10;;;;;;;0.70;0.70;;;4.20;99.90;;;;;;5067558;28;20650;-93
2020/12/29 06:11:39;;;;;;;1.03;0.60;;;4.20;99.90;;;;;;5062429;28;20646;-92
2020/12/29 06:14:13;;;;;;;0.83;0.60;;;4.20;99.90;;;;;;5069989;28;20668;-93
2020/12/29 06:16:47;;;;;;;1.30;0.70;;;4.20;99.90;;;;;;5067817;28;20643;-94
2020/12/29 06:19:25;;;;;;;1.73;0.60;;;4.20;99.90;;;;;;5060178;28;20634;-92
2020/12/29 06:22:06;;;;;;;1.43;0.50;;;4.10;99.90;;;;;;5066177;28;20679;-92
2020/12/29 06:24:34;;;;;;;1.90;0.50;;;4.10;99.90;;;;;;5067239;28;20967;-92
2020/12/29 06:27:02;;;;;;;1.57;0.60;;;4.10;99.90;;;;;;5066947;28;20655;-91
2020/12/29 06:29:36;;;;;;;2.17;0.50;;;4.10;99.90;;;;;;5068164;28;20632;-92
2020/12/29 06:32:05;;;;;;;1.00;0.60;;;4.10;99.90;;;;;;5063655;28;20631;-92
2020/12/29 06:34:33;;;;;;;0.77;0.50;;;4.10;99.90;;;;;;5067557;28;20685;-90
2020/12/29 06:37:13;;;;;;;2.30;0.80;;;4.20;99.90;;;;;;5068585;28;21178;-91
2020/12/29 06:39:46;;;;;;;2.90;0.70;;;4.20;99.90;;;;;;5066838;28;20662;-91
2020/12/29 06:42:14;;;;;;;0.70;0.70;;;4.20;99.90;;;;;;5065949;28;20638;-91
2020/12/29 06:44:41;;;;;;;0.80;0.50;;;4.20;99.90;;;;;;5049359;28;21005;-91
2020/12/29 06:47:08;;;;;;;1.00;0.70;;;4.20;99.90;;;;;;5071714;28;20684;-91
2020/12/29 06:49:34;;;;;;;2.20;0.83;;;4.20;99.90;;;;;;5066911;28;20680;-93
2020/12/29 06:52:17;;;;;;;1.43;1.07;;;4.20;99.90;;;;;;5062928;28;20712;-91
2020/12/29 06:54:48;;;;;;;1.63;0.90;;;4.30;99.90;;;;;;5065196;28;20681;-93
2020/12/29 06:57:14;;;;;;;1.47;0.60;;;4.30;99.90;;;;;;5069891;28;20631;-92
2020/12/29 06:59:50;;;;;;;0.97;0.60;;;4.30;99.90;;;;;;5059715;28;20683;-92
2020/12/29 07:02:21;;;;;;;1.67;0.70;;;4.30;99.90;;;;;;5063746;28;21189;-90
2020/12/29 07:04:52;;;;;;;1.23;0.93;;;4.30;99.90;;;;;;5069404;28;20709;-89
2020/12/29 07:07:26;;;;;;;1.83;1.00;;;4.30;99.90;;;;;;5068583;28;21192;-89
2020/12/29 07:09:59;;;;;;;1.20;0.57;;;4.40;99.90;;;;;;5070087;28;20759;-90
2020/12/29 07:12:30;;;;;;;2.50;0.70;;;4.40;99.90;;;;;;5071738;28;20630;-91
2020/12/29 07:15:00;;;;;;;2.43;0.80;;;4.40;99.90;;;;;;5074507;28;20715;-90
2020/12/29 07:17:30;;;;;;;1.43;0.80;;;4.40;99.90;;;;;;5070562;28;21239;-91
2020/12/29 07:19:56;;;;;;;1.93;0.90;;;4.50;99.90;;;;;;5071128;28;20675;-94
2020/12/29 07:22:32;;;;;;;0.83;0.60;;;4.40;99.90;;;;;;5068848;28;20615;-93
2020/12/29 07:24:59;;;;;;;1.77;1.50;;;4.40;99.90;;;;;;5074474;28;21229;-93
2020/12/29 07:27:29;;;;;;;2.20;0.83;;;4.40;99.90;;;;;;5075008;28;20621;-94
2020/12/29 07:29:57;;;;;;;2.17;1.47;;;4.40;99.90;;;;;;5069957;28;20647;-91
2020/12/29 07:32:24;;;;;;;1.17;0.87;;;4.40;99.90;;;;;;5066330;28;20640;-91
2020/12/29 07:34:50;;;;;;;2.20;0.87;;;4.40;99.90;;;;;;5068509;28;20753;-90
2020/12/29 07:37:20;;;;;;;1.97;1.00;;;4.40;99.90;;;;;;5070171;28;20652;-90
2020/12/29 07:39:50;;;;;;;1.57;0.60;;;4.40;99.90;;;;;;5072978;28;20680;-90
2020/12/29 07:42:17;;;;;;;2.43;1.23;;;4.50;99.90;;;;;;5069645;28;20637;-91
2020/12/29 07:44:44;;;;;;;2.63;0.80;;;4.50;99.90;;;;;;5065837;28;20657;-90
2020/12/29 07:47:10;;;;;;;2.67;1.50;;;4.50;99.90;;;;;;5069997;28;20633;-89
2020/12/29 07:49:37;;;;;;;2.93;1.63;;;4.50;99.90;;;;;;5067273;27;21256;-90
2020/12/29 07:52:03;;;;;;;2.40;1.03;;;4.50;99.90;;;;;;5064357;28;20999;-89
2020/12/29 07:54:34;;;;;;;10.30;1.63;;;4.50;99.90;;;;;;5068118;28;20673;-90
2020/12/29 07:57:02;;;;;;;4.43;1.17;;;4.50;99.90;;;;;;5068331;28;20632;-90
2020/12/29 07:59:31;;;;;;;4.10;1.37;;;4.60;99.90;;;;;;5065573;28;20732;-90
2020/12/29 08:02:01;;;;;;;2.60;1.00;;;4.60;99.90;;;;;;5070297;28;20651;-89
2020/12/29 08:04:32;;;;;;;1.70;1.00;;;4.60;99.90;;;;;;5073607;28;20635;-89
2020/12/29 08:07:05;;;;;;;2.40;1.27;;;4.60;99.90;;;;;;5085776;28;20762;-90
2020/12/29 08:09:44;;;;;;;1.90;1.00;;;4.60;99.90;;;;;;5087760;28;20631;-91
2020/12/29 08:12:18;;;;;;;3.03;1.83;;;4.70;99.90;;;;;;5086382;28;20644;-90
2020/12/29 08:14:45;;;;;;;1.60;0.97;;;4.70;99.90;;;;;;5084684;28;20691;-90
2020/12/29 08:17:11;;;;;;;4.00;1.33;;;4.80;99.90;;;;;;5078072;28;20644;-90
2020/12/29 08:19:38;;;;;;;1.77;1.17;;;4.90;99.90;;;;;;5085668;28;20624;-91
2020/12/29 08:22:05;;;;;;;1.30;0.80;;;4.90;99.90;;;;;;5085587;28;20644;-89
2020/12/29 08:24:32;;;;;;;1.93;1.43;;;4.90;99.90;;;;;;5071977;28;20634;-89
2020/12/29 08:26:58;;;;;;;3.60;1.53;;;5.00;99.90;;;;;;5071838;28;20686;-88
2020/12/29 08:29:27;;;;;;;2.27;1.30;;;5.00;99.90;;;;;;5073366;28;20622;-89
2020/12/29 08:32:08;;;;;;;1.47;0.80;;;5.10;99.90;;;;;;5065433;28;20679;-89
2020/12/29 08:34:35;;;;;;;1.43;0.87;;;5.20;99.90;;;;;;5072539;28;21595;-90
2020/12/29 08:37:04;;;;;;;2.17;1.40;;;5.20;99.90;;;;;;5071627;28;20708;-91
2020/12/29 08:39:56;;;;;;;2.57;2.37;;;5.20;99.90;;;;;;5076129;28;20647;-90
2020/12/29 08:42:25;;;;;;;1.87;1.47;;;5.30;99.90;;;;;;5089026;28;20686;-89
2020/12/29 08:44:54;;;;;;;2.47;1.20;;;5.30;99.90;;;;;;5092121;28;20636;-88
2020/12/29 08:47:20;;;;;;;2.77;1.20;;;5.30;99.90;;;;;;5076099;28;20652;-89
2020/12/29 08:49:46;;;;;;;2.10;1.00;;;5.50;99.90;;;;;;5079833;28;21271;-89
2020/12/29 08:52:12;;;;;;;2.10;1.10;;;5.40;99.90;;;;;;5072265;28;20657;-89
2020/12/29 08:54:39;;;;;;;2.00;1.20;;;5.30;99.90;;;;;;5071622;28;20668;-89
2020/12/29 08:57:07;;;;;;;2.20;1.33;;;5.30;99.90;;;;;;5067976;28;20628;-90
2020/12/29 08:59:36;;;;;;;3.60;1.50;;;5.40;99.90;;;;;;5068552;28;20726;-90
2020/12/29 09:02:04;;;;;;;3.33;1.57;;;5.40;99.90;;;;;;5068451;28;21345;-90
2020/12/29 09:04:33;;;;;;;2.80;1.87;;;5.40;99.90;;;;;;5066032;28;21040;-89
2020/12/29 09:07:02;;;;;;;1.63;1.40;;;5.40;99.90;;;;;;5070012;28;20983;-92
2020/12/29 09:09:30;;;;;;;6.47;1.70;;;5.40;99.90;;;;;;5066669;28;20645;-90
2020/12/29 09:12:17;;;;;;;4.13;1.57;;;5.40;99.90;;;;;;5063358;28;20676;-90
2020/12/29 09:14:51;;;;;;;1.50;0.80;;;5.20;99.90;;;;;;5067639;28;21313;-90
2020/12/29 09:17:19;;;;;;;3.47;1.33;;;5.10;99.90;;;;;;5065204;28;20631;-90
2020/12/29 09:20:14;;;;;;;2.40;1.77;;;4.90;99.90;;;;;;5069459;28;20680;-91
2020/12/29 09:22:56;;;;;;;3.00;1.83;;;4.80;99.90;;;;;;5051479;28;20843;-90
2020/12/29 09:25:30;;;;;;;3.63;1.40;;;4.70;99.90;;;;;;5063535;28;20622;-90
2020/12/29 09:28:21;;;;;;;3.33;1.97;;;4.60;99.90;;;;;;5065364;28;20729;-91
2020/12/29 09:30:58;;;;;;;2.20;1.53;;;4.60;99.90;;;;;;5063157;28;20662;-91
2020/12/29 09:33:28;;;;;;;3.13;2.33;;;4.50;99.90;;;;;;5059163;28;20643;-91
2020/12/29 09:35:58;;;;;;;3.30;1.17;;;4.40;99.90;;;;;;5066080;28;20648;-91
2020/12/29 09:38:24;;;;;;;1.37;0.70;;;4.40;99.90;;;;;;5057631;28;20686;-91
2020/12/29 09:40:51;;;;;;;0.90;0.70;;;4.20;99.90;;;;;;5060311;28;20632;-91
2020/12/29 09:43:21;;;;;;;5.23;1.80;;;4.20;99.90;;;;;;5061591;28;20635;-91
2020/12/29 09:45:48;;;;;;;4.33;2.83;;;4.20;99.90;;;;;;5061563;28;20668;-91
2020/12/29 09:48:15;;;;;;;1.93;1.47;;;4.20;99.90;;;;;;5062444;28;20675;-91
2020/12/29 09:50:43;;;;;;;1.47;1.00;;;4.20;99.90;;;;;;5063449;28;20648;-91
2020/12/29 09:53:16;;;;;;;0.90;0.90;;;4.20;99.90;;;;;;5064180;28;20990;-92
2020/12/29 09:55:43;;;;;;;1.13;0.60;;;4.30;99.90;;;;;;5061331;28;20640;-91
2020/12/29 09:58:09;;;;;;;2.33;0.90;;;4.40;99.90;;;;;;5071333;28;20678;-91
2020/12/29 10:00:35;;;;;;;0.80;0.80;;;4.40;99.90;;;;;;5063737;28;20650;-92
2020/12/29 10:03:02;;;;;;;1.27;1.10;;;4.40;99.90;;;;;;5074520;28;20647;-92
2020/12/29 10:05:28;;;;;;;1.93;1.20;;;4.50;99.90;;;;;;5067058;28;20650;-92
2020/12/29 10:07:55;;;;;;;2.70;1.30;;;4.40;99.90;;;;;;5067960;28;20664;-91
2020/12/29 10:10:22;;;;;;;0.90;0.80;;;4.50;99.90;;;;;;5068405;28;20625;-92
2020/12/29 10:12:49;;;;;;;1.50;1.20;;;4.60;99.90;;;;;;5072107;28;20769;-90
2020/12/29 10:15:15;;;;;;;6.20;1.00;;;4.60;99.90;;;;;;5068388;28;20660;-90
2020/12/29 10:17:41;;;;;;;1.80;1.40;;;4.70;99.90;;;;;;5064831;28;21043;-90
2020/12/29 10:20:09;;;;;;;3.03;1.17;;;4.70;99.90;;;;;;5066039;28;20644;-91
2020/12/29 10:22:36;;;;;;;1.63;1.50;;;5.00;99.90;;;;;;5072334;28;20649;-90
2020/12/29 10:25:04;;;;;;;2.10;1.90;;;5.10;99.90;;;;;;5068576;28;20856;-90
2020/12/29 10:27:30;;;;;;;3.83;2.20;;;5.20;99.90;;;;;;5068346;28;20673;-89
2020/12/29 10:29:56;;;;;;;1.47;0.70;;;5.30;99.90;;;;;;5065377;28;20646;-90
2020/12/29 10:32:23;;;;;;;1.40;0.93;;;5.20;99.90;;;;;;5064685;28;20653;-91
2020/12/29 10:34:50;;;;;;;1.97;1.20;;;5.50;99.90;;;;;;5063017;28;20674;-91
2020/12/29 10:37:17;;;;;;;1.37;1.20;;;5.60;99.90;;;;;;5078354;28;20646;-91
2020/12/29 10:39:43;;;;;;;0.97;0.73;;;5.40;99.90;;;;;;5074670;28;20684;-91
2020/12/29 10:42:12;;;;;;;0.60;0.60;;;5.40;99.90;;;;;;5071349;28;20625;-91
2020/12/29 10:44:38;;;;;;;1.00;0.67;;;5.40;99.90;;;;;;5076125;28;20640;-90
2020/12/29 10:47:05;;;;;;;2.10;1.10;;;5.40;99.90;;;;;;5069019;28;20728;-90
2020/12/29 10:49:31;;;;;;;1.40;0.80;;;5.40;99.90;;;;;;5071898;28;20875;-91
2020/12/29 10:51:58;;;;;;;1.30;1.20;;;5.50;99.90;;;;;;5067023;28;21253;-90
2020/12/29 10:54:25;;;;;;;1.03;0.97;;;5.70;99.90;;;;;;5064184;28;20685;-89
2020/12/29 10:56:51;;;;;;;0.70;0.70;;;5.80;99.90;;;;;;5065502;28;20775;-89
2020/12/29 10:59:19;;;;;;;4.20;2.73;;;5.80;99.90;;;;;;5063059;28;20715;-90
2020/12/29 11:01:45;;;;;;;1.13;0.83;;;5.80;99.90;;;;;;5064797;28;21175;-90
2020/12/29 11:04:12;;;;;;;1.10;0.90;;;5.80;99.90;;;;;;5059156;28;20641;-90
2020/12/29 11:06:39;;;;;;;1.17;0.60;;;5.90;99.90;;;;;;5068256;28;21239;-91
2020/12/29 11:09:05;;;;;;;1.30;0.80;;;5.90;99.90;;;;;;5062182;28;20770;-90
2020/12/29 11:11:32;;;;;;;0.97;0.43;;;5.90;99.90;;;;;;5071595;28;20676;-90
2020/12/29 11:13:59;;;;;;;1.10;1.00;;;6.20;99.90;;;;;;5063274;28;20687;-91
2020/12/29 11:16:26;;;;;;;0.80;0.50;;;6.30;99.90;;;;;;5068700;28;20659;-91
2020/12/29 11:18:52;;;;;;;0.80;0.57;;;6.50;99.90;;;;;;5060267;28;20647;-91
2020/12/29 11:21:19;;;;;;;0.60;0.60;;;6.20;99.90;;;;;;5066408;28;20694;-91
2020/12/29 11:23:46;;;;;;;1.30;1.00;;;6.30;99.90;;;;;;5067072;28;20767;-90
2020/12/29 11:26:14;;;;;;;1.40;1.00;;;6.60;99.90;;;;;;5071102;28;20648;-91
2020/12/29 11:28:40;;;;;;;0.80;0.60;;;7.30;99.90;;;;;;5066269;28;21216;-90
2020/12/29 11:31:06;;;;;;;1.17;0.70;;;7.80;99.90;;;;;;5063961;28;20648;-91
2020/12/29 11:33:33;;;;;;;1.00;0.83;;;8.40;99.90;;;;;;5063854;28;20644;-92
2020/12/29 11:35:59;;;;;;;0.60;0.43;;;8.90;99.90;;;;;;5071052;28;20717;-91
2020/12/29 11:38:26;;;;;;;0.80;0.70;;;8.90;99.90;;;;;;5067127;28;20646;-90
2020/12/29 11:40:52;;;;;;;0.90;0.70;;;8.20;99.90;;;;;;5066032;28;20648;-91
2020/12/29 11:43:19;;;;;;;1.03;0.97;;;7.80;99.90;;;;;;5058961;28;20642;-90
2020/12/29 11:45:45;;;;;;;1.20;0.67;;;7.60;99.90;;;;;;5072466;28;20647;-90
2020/12/29 11:48:11;;;;;;;0.90;0.60;;;7.00;99.90;;;;;;5073700;28;20614;-91
2020/12/29 11:50:38;;;;;;;1.20;1.10;;;6.90;99.90;;;;;;5079166;28;20642;-89
2020/12/29 11:53:05;;;;;;;1.20;1.10;;;6.70;99.90;;;;;;5080970;28;20642;-91
2020/12/29 11:55:31;;;;;;;2.20;1.33;;;6.60;99.90;;;;;;5086799;28;20706;-92
2020/12/29 11:57:57;;;;;;;2.80;0.90;;;6.60;99.90;;;;;;5079150;28;20656;-91
2020/12/29 12:00:25;;;;;;;2.07;1.10;;;6.60;99.90;;;;;;5079019;28;20681;-90
2020/12/29 12:02:51;;;;;;;1.13;0.70;;;6.70;99.90;;;;;;5079171;28;21098;-91
2020/12/29 12:05:18;;;;;;;1.60;1.50;;;6.70;99.90;;;;;;5082467;28;20630;-91
2020/12/29 12:07:45;;;;;;;1.73;1.60;;;7.30;99.90;;;;;;5080916;28;20668;-92
2020/12/29 12:10:13;;;;;;;1.80;1.50;;;7.60;99.90;;;;;;5080481;28;20633;-92
2020/12/29 12:12:39;;;;;;;2.63;1.40;;;7.60;99.90;;;;;;5076260;28;20672;-89
2020/12/29 12:15:07;;;;;;;1.60;1.00;;;7.50;99.90;;;;;;5076062;28;20695;-89
2020/12/29 12:17:33;;;;;;;1.73;1.30;;;7.90;99.90;;;;;;5083297;28;21837;-91
2020/12/29 12:19:59;;;;;;;2.90;1.87;;;8.40;99.90;;;;;;5085504;28;20986;-91
2020/12/29 12:22:26;;;;;;;1.33;0.77;;;8.70;99.90;;;;;;5085070;28;20632;-90
2020/12/29 12:24:55;;;;;;;1.83;0.90;;;9.20;99.90;;;;;;5086630;28;20637;-90
2020/12/29 12:27:21;;;;;;;1.40;0.50;;;8.90;99.90;;;;;;5082407;28;21044;-90
2020/12/29 12:29:47;;;;;;;0.60;0.40;;;9.10;99.90;;;;;;5077170;28;20635;-90
2020/12/29 12:32:14;;;;;;;1.33;0.60;;;8.70;99.90;;;;;;5075107;28;20645;-90
2020/12/29 12:34:40;;;;;;;1.80;1.00;;;8.20;99.90;;;;;;5072517;28;20689;-91
2020/12/29 12:37:07;;;;;;;0.80;0.30;;;8.00;99.90;;;;;;5072475;28;21228;-90
2020/12/29 12:39:33;;;;;;;1.60;0.40;;;8.10;99.90;;;;;;5073399;28;20636;-89
2020/12/29 12:42:01;;;;;;;1.00;0.60;;;8.30;99.90;;;;;;5073405;28;20636;-90
2020/12/29 12:44:27;;;;;;;0.70;0.57;;;8.30;99.90;;;;;;5070151;28;20626;-90
2020/12/29 12:46:53;;;;;;;1.03;0.77;;;8.00;99.90;;;;;;5070586;28;20662;-90
2020/12/29 12:49:19;;;;;;;1.20;0.60;;;8.10;99.90;;;;;;5071561;28;20656;-90
2020/12/29 12:51:47;;;;;;;1.03;0.77;;;8.00;99.90;;;;;;5072664;28;20729;-91
2020/12/29 12:54:14;;;;;;;0.50;0.40;;;9.30;99.90;;;;;;5070434;28;20679;-91
2020/12/29 12:56:42;;;;;;;0.90;0.60;;;10.30;99.30;;;;;;5074400;28;20667;-91
2020/12/29 12:59:11;;;;;;;0.93;0.60;;;10.70;99.10;;;;;;5070104;28;20728;-89
2020/12/29 13:01:37;;;;;;;0.73;0.70;;;10.60;97.50;;;;;;5069879;28;20653;-91
2020/12/29 13:04:05;;;;;;;1.20;0.57;;;10.80;98.10;;;;;;5068437;28;20643;-90